createdAt,value
2023-12-24T00:00:34.452Z,77.55
2023-12-24T00:03:07.459Z,77.44
2023-12-24T00:05:40.787Z,77.83
2023-12-24T00:08:13.349Z,77.68
2023-12-24T00:10:46.270Z,77.81
2023-12-24T00:13:19.058Z,77.96
2023-12-24T00:15:51.994Z,77.82
2023-12-24T00:18:24.783Z,77.89
2023-12-24T00:20:58.096Z,77.31
2023-12-24T00:23:30.760Z,77.51
2023-12-24T00:26:03.189Z,77.32
2023-12-24T00:28:36.092Z,76.33
2023-12-24T00:31:11.911Z,75.88
2023-12-24T00:33:43.452Z,75.72
2023-12-24T00:36:16.028Z,74.95
2023-12-24T00:38:50.289Z,75.17
2023-12-24T00:41:23.625Z,75.52
2023-12-24T00:43:56.552Z,74.49
2023-12-24T00:46:29.442Z,74.87
2023-12-24T00:49:02.212Z,74.62
2023-12-24T00:51:35.340Z,74.46
2023-12-24T00:54:07.820Z,74.27
2023-12-24T00:56:40.427Z,74.81
2023-12-24T00:59:13.287Z,75.01
2023-12-24T01:01:45.897Z,74.94
2023-12-24T01:04:18.705Z,74.86
2023-12-24T01:06:51.547Z,74.81
2023-12-24T01:09:24.375Z,74.75
2023-12-24T01:11:57.384Z,74.65
2023-12-24T01:14:29.855Z,74.20
2023-12-24T01:17:02.822Z,74.27
2023-12-24T01:19:36.047Z,74.30
2023-12-24T01:22:08.637Z,74.25
2023-12-24T01:24:41.355Z,74.21
2023-12-24T01:27:14.018Z,74.16
2023-12-24T01:29:46.800Z,74.13
2023-12-24T01:32:19.778Z,73.50
2023-12-24T01:34:52.320Z,73.51
2023-12-24T01:37:25.239Z,73.67
2023-12-24T01:39:57.943Z,74.00
2023-12-24T01:42:30.653Z,73.80
2023-12-24T01:45:03.547Z,74.04
2023-12-24T01:47:36.908Z,73.92
2023-12-24T01:50:10.861Z,74.14
2023-12-24T01:52:44.806Z,74.27
2023-12-24T01:55:18.281Z,73.93
2023-12-24T01:57:51.574Z,72.49
2023-12-24T02:00:24.744Z,72.63
2023-12-24T02:02:59.974Z,72.64
2023-12-24T02:05:33.529Z,72.89
2023-12-24T02:08:07.826Z,73.29
2023-12-24T02:10:41.186Z,73.32
2023-12-24T02:13:14.914Z,73.99
2023-12-24T02:15:49.983Z,74.05
2023-12-24T02:18:23.734Z,73.72
2023-12-24T02:21:05.579Z,74.07
2023-12-24T02:23:38.664Z,74.26
2023-12-24T02:26:26.398Z,74.88
2023-12-24T02:29:04.746Z,74.32
2023-12-24T02:31:40.283Z,73.82
2023-12-24T02:34:15.945Z,74.71
2023-12-24T02:36:50.090Z,74.86
2023-12-24T02:39:23.408Z,74.48
2023-12-24T02:41:56.952Z,74.22
2023-12-24T02:44:29.511Z,73.59
2023-12-24T02:47:03.164Z,73.66
2023-12-24T02:49:36.089Z,73.40
2023-12-24T02:52:08.773Z,73.71
2023-12-24T02:54:41.301Z,72.77
2023-12-24T02:57:14.077Z,72.64
2023-12-24T02:59:46.415Z,72.37
2023-12-24T03:02:19.116Z,72.67
2023-12-24T03:04:52.162Z,73.12
2023-12-24T03:07:24.567Z,73.07
2023-12-24T03:09:57.565Z,73.25
2023-12-24T03:12:29.996Z,73.57
2023-12-24T03:15:02.675Z,73.47
2023-12-24T03:17:35.759Z,73.79
2023-12-24T03:20:10.672Z,73.99
2023-12-24T03:22:43.214Z,74.08
2023-12-24T03:25:15.690Z,73.73
2023-12-24T03:27:49.054Z,73.41
2023-12-24T03:30:21.999Z,74.03
2023-12-24T03:32:54.997Z,73.92
2023-12-24T03:35:27.606Z,74.04
2023-12-24T03:38:00.609Z,74.41
2023-12-24T03:40:34.846Z,74.26
2023-12-24T03:43:07.338Z,73.99
2023-12-24T03:45:40.010Z,73.60
2023-12-24T03:48:13.903Z,72.55
2023-12-24T03:50:46.881Z,72.56
2023-12-24T03:53:19.607Z,72.96
2023-12-24T03:55:52.659Z,73.67
2023-12-24T03:58:25.391Z,74.01
2023-12-24T04:00:58.493Z,74.64
2023-12-24T04:03:30.999Z,74.45
2023-12-24T04:06:04.318Z,73.93
2023-12-24T04:08:37.231Z,74.27
2023-12-24T04:11:18.488Z,74.03
2023-12-24T04:13:51.023Z,74.20
2023-12-24T04:16:25.262Z,73.17
2023-12-24T04:18:58.373Z,72.92
2023-12-24T04:21:32.339Z,73.50
2023-12-24T04:24:04.917Z,73.29
2023-12-24T04:26:38.609Z,73.60
2023-12-24T04:29:11.472Z,74.12
2023-12-24T04:31:44.070Z,73.62
2023-12-24T04:34:16.732Z,73.67
2023-12-24T04:36:49.366Z,73.99
2023-12-24T04:39:22.299Z,74.10
2023-12-24T04:41:54.767Z,74.30
2023-12-24T04:44:27.372Z,73.84
2023-12-24T04:46:59.996Z,73.77
2023-12-24T04:49:32.641Z,73.77
2023-12-24T04:52:05.239Z,73.62
2023-12-24T04:54:38.363Z,74.01
2023-12-24T04:57:10.865Z,74.23
2023-12-24T04:59:43.294Z,74.64
2023-12-24T05:02:16.152Z,74.15
2023-12-24T05:04:48.848Z,73.99
2023-12-24T05:07:25.457Z,74.47
2023-12-24T05:09:58.202Z,74.64
2023-12-24T05:12:32.979Z,74.48
2023-12-24T05:15:06.739Z,74.41
2023-12-24T05:17:40.330Z,74.16
2023-12-24T05:20:14.775Z,74.15
2023-12-24T05:22:47.367Z,74.09
2023-12-24T05:25:21.775Z,74.66
2023-12-24T05:27:54.324Z,75.29
2023-12-24T05:30:26.925Z,74.28
2023-12-24T05:33:00.406Z,74.89
2023-12-24T05:35:33.740Z,75.69
2023-12-24T05:38:07.066Z,75.19
2023-12-24T05:40:40.105Z,74.83
2023-12-24T05:43:12.977Z,75.08
2023-12-24T05:45:46.517Z,75.35
2023-12-24T05:48:19.027Z,75.43
2023-12-24T05:50:51.894Z,75.88
2023-12-24T05:53:24.906Z,75.95
2023-12-24T05:55:57.409Z,75.92
2023-12-24T05:58:30.080Z,75.95
2023-12-24T06:01:03.259Z,75.74
2023-12-24T06:03:36.564Z,76.06
2023-12-24T06:06:09.861Z,75.96
2023-12-24T06:08:42.660Z,76.33
2023-12-24T06:11:19.252Z,76.83
2023-12-24T06:13:52.302Z,77.00
2023-12-24T06:16:25.697Z,76.78
2023-12-24T06:18:58.761Z,77.06
2023-12-24T06:21:31.280Z,77.52
2023-12-24T06:24:04.106Z,77.62
2023-12-24T06:26:36.712Z,77.67
2023-12-24T06:29:09.592Z,77.88
2023-12-24T06:31:42.282Z,77.98
2023-12-24T06:34:16.522Z,77.73
2023-12-24T06:36:49.291Z,77.88
2023-12-24T06:39:21.990Z,77.95
2023-12-24T06:41:56.089Z,77.88
2023-12-24T06:44:30.754Z,78.04
2023-12-24T06:47:03.794Z,78.16
2023-12-24T06:49:36.919Z,77.92
2023-12-24T06:52:10.241Z,78.24
2023-12-24T06:54:42.966Z,78.54
2023-12-24T06:57:16.544Z,78.50
2023-12-24T06:59:49.525Z,78.56
2023-12-24T07:02:23.169Z,78.71
2023-12-24T07:04:55.744Z,78.74
2023-12-24T07:07:28.320Z,78.80
2023-12-24T07:10:03.394Z,78.75
2023-12-24T07:12:36.886Z,78.82
2023-12-24T07:15:10.622Z,78.84
2023-12-24T07:17:43.961Z,79.01
2023-12-24T07:20:16.580Z,79.11
2023-12-24T07:22:50.179Z,79.32
2023-12-24T07:25:22.637Z,79.36
2023-12-24T07:27:55.269Z,79.46
2023-12-24T07:30:28.660Z,79.67
2023-12-24T07:33:01.944Z,79.89
2023-12-24T07:35:34.698Z,79.97
2023-12-24T07:38:08.073Z,79.90
2023-12-24T07:40:41.642Z,79.93
2023-12-24T07:43:14.028Z,80.00
2023-12-24T07:45:46.951Z,79.99
2023-12-24T07:48:20.764Z,79.97
2023-12-24T07:50:54.578Z,79.94
2023-12-24T07:53:28.278Z,79.99
2023-12-24T07:56:01.430Z,80.05
2023-12-24T07:58:34.433Z,80.06
2023-12-24T08:01:07.431Z,79.95
2023-12-24T08:03:40.548Z,80.04
2023-12-24T08:06:17.887Z,80.21
2023-12-24T08:08:48.021Z,79.99
2023-12-24T08:11:20.480Z,79.77
2023-12-24T08:13:53.284Z,79.78
2023-12-24T08:16:43.577Z,79.71
2023-12-24T08:19:16.652Z,79.77
2023-12-24T08:21:49.170Z,79.73
2023-12-24T08:24:24.326Z,79.69
2023-12-24T08:26:58.090Z,79.69
2023-12-24T08:29:32.141Z,79.53
2023-12-24T08:32:04.974Z,79.45
2023-12-24T08:34:37.894Z,79.16
2023-12-24T08:37:10.537Z,78.93
2023-12-24T08:39:44.063Z,78.82
2023-12-24T08:42:17.040Z,78.77
2023-12-24T08:44:49.775Z,78.65
2023-12-24T08:47:22.662Z,78.39
2023-12-24T08:49:55.837Z,78.41
2023-12-24T08:52:46.209Z,78.08
2023-12-24T08:55:19.571Z,78.06
2023-12-24T08:57:52.335Z,77.80
2023-12-24T09:00:25.475Z,77.27
2023-12-24T09:02:58.645Z,77.07
2023-12-24T09:05:32.051Z,76.66
2023-12-24T09:08:05.301Z,76.31
2023-12-24T09:10:39.047Z,75.87
2023-12-24T09:13:12.375Z,75.81
2023-12-24T09:15:45.579Z,75.68
2023-12-24T09:18:18.905Z,75.53
2023-12-24T09:20:52.796Z,74.78
2023-12-24T09:23:25.891Z,74.44
2023-12-24T09:25:58.602Z,74.20
2023-12-24T09:28:31.503Z,73.73
2023-12-24T09:31:04.757Z,73.37
2023-12-24T09:33:37.976Z,72.98
2023-12-24T09:36:10.948Z,72.66
2023-12-24T09:38:43.787Z,72.35
2023-12-24T09:41:20.351Z,72.26
2023-12-24T09:43:53.219Z,72.08
2023-12-24T09:46:26.925Z,71.47
2023-12-24T09:48:59.539Z,71.46
2023-12-24T09:51:34.221Z,71.09
2023-12-24T09:54:09.132Z,71.13
2023-12-24T09:56:42.536Z,70.69
2023-12-24T09:59:15.763Z,70.46
2023-12-24T10:01:49.523Z,70.08
2023-12-24T10:04:22.451Z,70.08
2023-12-24T10:06:59.636Z,70.63
2023-12-24T10:09:47.349Z,69.89
2023-12-24T10:12:21.623Z,69.84
2023-12-24T10:15:00.522Z,69.76
2023-12-24T10:17:37.376Z,69.30
2023-12-24T10:20:11.611Z,69.89
2023-12-24T10:22:44.515Z,69.14
2023-12-24T10:25:18.837Z,69.18
2023-12-24T10:27:51.743Z,69.33
2023-12-24T10:30:26.132Z,69.58
2023-12-24T10:33:11.007Z,69.76
2023-12-24T10:35:44.454Z,69.91
2023-12-24T10:38:19.980Z,69.81
2023-12-24T10:40:52.935Z,69.28
2023-12-24T10:43:26.055Z,69.44
2023-12-24T10:45:58.825Z,68.84
2023-12-24T10:48:32.862Z,69.13
2023-12-24T10:51:06.056Z,69.44
2023-12-24T10:53:43.612Z,69.29
2023-12-24T10:56:19.414Z,68.63
2023-12-24T10:59:13.670Z,68.50
2023-12-24T11:01:53.877Z,69.07
2023-12-24T11:04:45.270Z,68.83
2023-12-24T11:07:38.551Z,68.49
2023-12-24T11:10:12.089Z,68.36
2023-12-24T11:12:51.935Z,67.84
2023-12-24T11:15:20.376Z,67.28
2023-12-24T11:17:53.234Z,68.21
2023-12-24T11:20:30.831Z,66.87
2023-12-24T11:23:10.815Z,67.24
2023-12-24T11:25:53.257Z,67.26
2023-12-24T11:28:29.749Z,67.40
2023-12-24T11:31:05.711Z,66.86
2023-12-24T11:33:47.705Z,66.80
2023-12-24T11:36:21.415Z,66.80
2023-12-24T11:39:01.859Z,66.67
2023-12-24T11:41:35.359Z,66.87
2023-12-24T11:44:09.812Z,66.70
2023-12-24T11:46:43.351Z,67.03
2023-12-24T11:49:17.786Z,67.66
2023-12-24T11:57:02.361Z,66.80
2023-12-24T11:59:35.518Z,66.32
2023-12-24T12:02:09.210Z,66.15
2023-12-24T12:04:41.944Z,66.52
2023-12-24T12:07:15.492Z,66.84
2023-12-24T12:09:48.950Z,66.78
2023-12-24T12:12:21.991Z,66.74
2023-12-24T12:14:55.281Z,67.18
2023-12-24T12:17:29.073Z,67.40
2023-12-24T12:20:01.736Z,67.53
2023-12-24T12:22:35.020Z,67.55
2023-12-24T12:25:08.852Z,67.63
2023-12-24T12:27:41.498Z,67.77
2023-12-24T12:30:15.328Z,67.92
2023-12-24T12:32:48.635Z,67.97
2023-12-24T12:35:22.130Z,68.23
2023-12-24T12:37:55.887Z,68.38
2023-12-24T12:40:36.751Z,68.46
2023-12-24T12:43:12.252Z,68.46
2023-12-24T12:45:45.384Z,68.73
2023-12-24T12:48:18.709Z,69.00
2023-12-24T12:50:52.462Z,69.07
2023-12-24T12:53:26.871Z,68.91
2023-12-24T12:56:05.046Z,68.86
2023-12-24T12:58:38.130Z,69.03
2023-12-24T13:01:11.590Z,68.83
2023-12-24T13:04:01.345Z,68.95
2023-12-24T13:06:33.993Z,68.87
2023-12-24T13:09:10.959Z,69.01
2023-12-24T13:11:43.543Z,69.18
2023-12-24T13:14:16.440Z,69.59
2023-12-24T13:16:49.823Z,69.81
2023-12-24T13:19:23.822Z,69.76
2023-12-24T13:21:56.828Z,69.80
2023-12-24T13:24:30.685Z,70.06
2023-12-24T13:27:05.616Z,70.03
2023-12-24T13:29:39.271Z,70.42
2023-12-24T13:32:13.969Z,70.52
2023-12-24T13:34:47.419Z,70.93
2023-12-24T13:37:20.267Z,70.94
2023-12-24T13:39:53.825Z,71.32
2023-12-24T13:42:26.959Z,71.35
2023-12-24T13:44:59.888Z,71.53
2023-12-24T13:47:36.850Z,71.63
2023-12-24T13:50:07.592Z,71.63
2023-12-24T13:52:41.472Z,71.45
2023-12-24T13:55:14.307Z,71.50
2023-12-24T13:57:47.999Z,71.70
2023-12-24T14:00:21.639Z,71.86
2023-12-24T14:02:57.667Z,71.85
2023-12-24T14:05:32.200Z,71.56
2023-12-24T14:08:09.338Z,71.36
2023-12-24T14:10:43.161Z,71.38
2023-12-24T14:13:16.666Z,71.36
2023-12-24T14:15:58.559Z,71.23
2023-12-24T14:18:34.109Z,71.07
2023-12-24T14:21:07.347Z,71.00
2023-12-24T14:23:40.685Z,70.93
2023-12-24T14:26:14.701Z,70.92
2023-12-24T14:28:47.405Z,71.06
2023-12-24T14:31:20.902Z,71.32
2023-12-24T14:33:54.191Z,71.03
2023-12-24T14:36:27.141Z,71.10
2023-12-24T14:39:00.289Z,71.02
2023-12-24T14:41:38.813Z,70.96
2023-12-24T14:44:13.113Z,71.11
2023-12-24T14:46:47.292Z,71.34
2023-12-24T14:49:37.949Z,71.71
2023-12-24T14:52:11.260Z,71.76
2023-12-24T14:54:45.133Z,72.36
2023-12-24T14:57:18.247Z,72.49
2023-12-24T14:59:51.072Z,72.51
2023-12-24T15:02:26.206Z,72.44
2023-12-24T15:05:00.809Z,72.52
2023-12-24T15:07:36.589Z,72.41
2023-12-24T15:10:11.372Z,72.13
2023-12-24T15:12:44.933Z,71.84
2023-12-24T15:15:19.586Z,71.79
2023-12-24T15:17:52.843Z,71.76
2023-12-24T15:20:25.644Z,71.60
2023-12-24T15:22:58.322Z,71.51
2023-12-24T15:25:31.550Z,71.59
2023-12-24T15:28:10.085Z,71.59
2023-12-24T15:30:43.227Z,71.54
2023-12-24T15:33:18.573Z,71.75
2023-12-24T15:35:51.554Z,71.80
2023-12-24T15:38:24.589Z,71.90
2023-12-24T15:40:58.639Z,71.85
2023-12-24T15:43:34.740Z,71.75
2023-12-24T15:46:08.000Z,71.85
2023-12-24T15:48:41.380Z,71.91
2023-12-24T15:51:14.353Z,71.76
2023-12-24T15:53:47.405Z,71.75
2023-12-24T15:56:24.827Z,73.06
2023-12-24T15:58:57.838Z,73.86
2023-12-24T16:01:31.770Z,73.93
2023-12-24T16:04:04.851Z,73.58
2023-12-24T16:06:38.349Z,72.80
2023-12-24T16:09:12.597Z,72.80
2023-12-24T16:11:46.167Z,72.80
2023-12-24T16:14:19.555Z,72.58
2023-12-24T16:16:53.435Z,72.29
2023-12-24T16:19:26.148Z,72.15
2023-12-24T16:21:59.485Z,72.47
2023-12-24T16:24:33.721Z,71.62
2023-12-24T16:27:08.955Z,71.62
2023-12-24T16:29:42.940Z,71.98
2023-12-24T16:32:20.514Z,72.19
2023-12-24T16:34:55.179Z,72.46
2023-12-24T16:37:28.414Z,72.29
2023-12-24T16:40:01.033Z,72.24
2023-12-24T16:42:35.269Z,72.51
2023-12-24T16:45:09.764Z,72.78
2023-12-24T16:47:43.639Z,72.88
2023-12-24T16:50:17.776Z,72.78
2023-12-24T16:52:51.039Z,72.83
2023-12-24T16:55:24.539Z,73.27
2023-12-24T16:57:57.810Z,72.95
2023-12-24T17:00:31.356Z,72.91
2023-12-24T17:03:04.771Z,72.87
2023-12-24T17:05:37.792Z,73.25
2023-12-24T17:08:11.185Z,73.25
2023-12-24T17:10:44.441Z,73.32
2023-12-24T17:13:19.289Z,73.24
2023-12-24T17:15:53.500Z,73.12
2023-12-24T17:18:26.470Z,73.10
2023-12-24T17:20:59.929Z,73.30
2023-12-24T17:23:34.409Z,73.07
2023-12-24T17:26:08.381Z,73.22
2023-12-24T17:28:42.039Z,73.30
2023-12-24T17:31:15.104Z,73.33
2023-12-24T17:33:48.694Z,73.49
2023-12-24T17:36:22.807Z,73.64
2023-12-24T17:38:55.611Z,73.75
2023-12-24T17:41:29.269Z,73.81
2023-12-24T17:44:03.950Z,73.48
2023-12-24T17:46:38.122Z,73.64
2023-12-24T17:49:11.684Z,73.64
2023-12-24T17:51:46.371Z,73.66
2023-12-24T17:54:19.386Z,73.88
2023-12-24T17:56:53.070Z,73.91
2023-12-24T17:59:28.560Z,74.10
2023-12-24T18:02:02.179Z,74.05
2023-12-24T18:04:35.277Z,74.22
2023-12-24T18:07:09.311Z,74.18
2023-12-24T18:09:43.790Z,73.97
2023-12-24T18:12:18.043Z,73.78
2023-12-24T18:14:50.943Z,73.86
2023-12-24T18:17:23.755Z,74.29
2023-12-24T18:19:57.618Z,73.93
2023-12-24T18:22:33.657Z,73.92
2023-12-24T18:25:11.124Z,73.74
2023-12-24T18:27:44.757Z,73.96
2023-12-24T18:30:18.734Z,73.84
2023-12-24T18:32:52.170Z,73.81
2023-12-24T18:35:26.329Z,73.78
2023-12-24T18:38:00.844Z,73.79
2023-12-24T18:40:33.625Z,73.96
2023-12-24T18:43:10.374Z,73.88
2023-12-24T18:45:46.968Z,73.80
2023-12-24T18:48:21.900Z,73.62
2023-12-24T18:50:55.494Z,73.59
2023-12-24T18:53:29.149Z,73.75
2023-12-24T18:56:03.914Z,73.86
2023-12-24T18:58:38.818Z,73.87
2023-12-24T19:01:12.680Z,73.91
2023-12-24T19:03:46.628Z,73.82
2023-12-24T19:06:32.164Z,73.79
2023-12-24T19:09:06.392Z,73.58
2023-12-24T19:11:40.054Z,73.81
2023-12-24T19:14:14.261Z,73.71
2023-12-24T19:16:47.459Z,73.67
2023-12-24T19:19:20.566Z,73.90
2023-12-24T19:21:54.510Z,73.81
2023-12-24T19:24:27.810Z,73.52
2023-12-24T19:27:02.433Z,73.54
2023-12-24T19:29:35.824Z,73.63
2023-12-24T19:32:09.790Z,73.60
2023-12-24T19:34:43.254Z,73.61
2023-12-24T19:37:17.126Z,73.23
2023-12-24T19:39:50.591Z,73.46
2023-12-24T19:42:25.707Z,73.37
2023-12-24T19:44:59.048Z,73.40
2023-12-24T19:47:33.769Z,73.28
2023-12-24T19:50:07.473Z,73.04
2023-12-24T19:52:40.709Z,73.17
2023-12-24T19:55:13.238Z,73.08
2023-12-24T19:57:46.251Z,72.93
2023-12-24T20:00:19.463Z,72.84
2023-12-24T20:02:52.426Z,73.00
2023-12-24T20:05:25.420Z,73.04
2023-12-24T20:07:58.588Z,73.33
2023-12-24T20:10:31.228Z,73.40
2023-12-24T20:13:04.713Z,73.51
2023-12-24T20:15:38.717Z,73.48
2023-12-24T20:18:11.406Z,73.64
2023-12-24T20:20:44.186Z,73.39
2023-12-24T20:23:17.056Z,73.40
2023-12-24T20:25:49.759Z,73.68
2023-12-24T20:28:22.348Z,73.57
2023-12-24T20:30:55.156Z,73.33
2023-12-24T20:33:27.901Z,73.56
2023-12-24T20:36:00.760Z,73.56
2023-12-24T20:38:33.626Z,73.75
2023-12-24T20:41:07.141Z,73.81
2023-12-24T20:43:39.734Z,73.76
2023-12-24T20:46:12.490Z,73.80
2023-12-24T20:48:45.184Z,73.93
2023-12-24T20:51:20.965Z,73.86
2023-12-24T20:53:54.612Z,73.66
2023-12-24T20:56:27.803Z,73.74
2023-12-24T20:59:01.518Z,73.93
2023-12-24T21:01:34.047Z,73.98
2023-12-24T21:04:06.961Z,73.30
2023-12-24T21:06:42.456Z,72.90
2023-12-24T21:09:17.060Z,72.80
2023-12-24T21:11:48.965Z,72.83
2023-12-24T21:14:22.270Z,72.85
2023-12-24T21:16:55.008Z,72.22
2023-12-24T21:19:27.547Z,72.27
2023-12-24T21:22:00.168Z,72.30
2023-12-24T21:24:32.878Z,72.77
2023-12-24T21:27:05.675Z,72.43
2023-12-24T21:29:38.527Z,72.89
2023-12-24T21:32:11.440Z,73.03
2023-12-24T21:34:43.958Z,73.19
2023-12-24T21:37:16.921Z,73.14
2023-12-24T21:39:50.540Z,73.57
2023-12-24T21:42:23.406Z,73.69
2023-12-24T21:44:55.980Z,74.00
2023-12-24T21:47:28.619Z,73.50
2023-12-24T21:50:01.715Z,73.55
2023-12-24T21:52:34.145Z,73.07
2023-12-24T21:55:06.925Z,73.63
2023-12-24T21:57:39.540Z,73.95
2023-12-24T22:00:12.172Z,74.24
2023-12-24T22:02:45.614Z,73.97
2023-12-24T22:05:18.315Z,74.26
2023-12-24T22:07:51.616Z,74.35
2023-12-24T22:10:24.303Z,74.37
2023-12-24T22:12:56.925Z,74.06
2023-12-24T22:15:29.468Z,74.03
2023-12-24T22:18:02.276Z,74.32
2023-12-24T22:20:34.979Z,74.29
2023-12-24T22:23:07.558Z,74.70
2023-12-24T22:25:40.393Z,74.78
2023-12-24T22:28:13.047Z,74.72
2023-12-24T22:30:46.003Z,74.57
2023-12-24T22:33:19.189Z,74.52
2023-12-24T22:35:52.084Z,74.72
2023-12-24T22:38:25.081Z,74.54
2023-12-24T22:40:57.875Z,74.41
2023-12-24T22:43:30.744Z,74.39
2023-12-24T22:46:04.025Z,74.07
2023-12-24T22:48:36.994Z,73.81
2023-12-24T22:51:13.219Z,74.27
2023-12-24T22:53:45.977Z,73.63
2023-12-24T22:56:18.934Z,73.56
2023-12-24T22:58:51.441Z,74.11
2023-12-24T23:01:24.573Z,73.79
2023-12-24T23:03:58.182Z,73.67
2023-12-24T23:06:31.077Z,74.24
2023-12-24T23:09:03.885Z,74.32
2023-12-24T23:11:36.416Z,74.33
2023-12-24T23:14:09.001Z,74.46
2023-12-24T23:16:41.921Z,74.52
2023-12-24T23:19:14.536Z,74.37
2023-12-24T23:21:47.067Z,74.23
2023-12-24T23:24:19.726Z,74.47
2023-12-24T23:26:52.819Z,74.50
2023-12-24T23:29:25.825Z,74.16
2023-12-24T23:31:58.337Z,74.00
2023-12-24T23:34:31.315Z,73.72
2023-12-24T23:37:03.945Z,73.49
2023-12-24T23:39:36.375Z,73.70
2023-12-24T23:42:08.749Z,73.93
2023-12-24T23:44:41.865Z,74.04
2023-12-24T23:47:14.298Z,73.79
2023-12-24T23:49:47.000Z,73.90
2023-12-24T23:52:19.993Z,73.55
2023-12-24T23:54:52.554Z,73.87
2023-12-24T23:57:25.116Z,74.08
2023-12-24T23:59:57.651Z,73.66
